createdAt,value
2022-08-26T00:02:16.118Z,92256.28
2022-08-26T00:04:52.455Z,92249.94
2022-08-26T00:07:24.493Z,92243.84
2022-08-26T00:10:02.595Z,92239.44
2022-08-26T00:12:37.324Z,92240.63
2022-08-26T00:15:16.585Z,92240.59
2022-08-26T00:17:49.794Z,92243.03
2022-08-26T00:20:30.618Z,92239.44
2022-08-26T00:23:08.457Z,92232.34
2022-08-26T00:25:45.345Z,92217.28
2022-08-26T00:28:19.054Z,92210.19
2022-08-26T00:30:56.391Z,92204.69
2022-08-26T00:33:28.364Z,92212.34
2022-08-26T00:35:59.982Z,92203.19
2022-08-26T00:38:32.899Z,92207.69
2022-08-26T00:41:10.622Z,92214.63
2022-08-26T00:43:55.486Z,92218.91
2022-08-26T00:46:35.441Z,92237.72
2022-08-26T00:52:33.449Z,92229.06
2022-08-26T00:55:22.500Z,92223.94
2022-08-26T00:57:59.184Z,92236.38
2022-08-26T01:00:36.463Z,92237.78
2022-08-26T01:03:14.344Z,92240.44
2022-08-26T01:05:53.127Z,92219.63
2022-08-26T01:08:27.939Z,92218.91
2022-08-26T01:11:13.840Z,92219.50
2022-08-26T01:13:52.520Z,92216.63
2022-08-26T01:16:26.259Z,92220.44
2022-08-26T01:19:12.000Z,92209.00
2022-08-26T01:21:51.697Z,92216.53
2022-08-26T01:24:26.325Z,92208.50
2022-08-26T01:27:03.692Z,92229.88
2022-08-26T01:29:39.383Z,92223.13
2022-08-26T01:32:18.811Z,92228.84
2022-08-26T01:34:56.141Z,92220.03
2022-08-26T01:37:34.202Z,92214.72
2022-08-26T01:40:11.805Z,92225.75
2022-08-26T01:42:49.549Z,92206.75
2022-08-26T01:45:25.371Z,92205.50
2022-08-26T01:48:07.231Z,92224.72
2022-08-26T01:50:42.356Z,92209.78
2022-08-26T01:53:22.372Z,92219.78
2022-08-26T01:56:01.668Z,92208.72
2022-08-26T01:58:43.852Z,92217.28
2022-08-26T02:01:17.441Z,92223.84
2022-08-26T02:04:06.580Z,92204.97
2022-08-26T02:06:40.876Z,92203.69
2022-08-26T02:09:18.287Z,92205.50
2022-08-26T02:11:56.952Z,92193.44
2022-08-26T02:14:43.826Z,92193.88
2022-08-26T02:17:18.163Z,92183.19
2022-08-26T02:20:00.929Z,92175.63
2022-08-26T02:22:38.123Z,92176.25
2022-08-26T02:25:23.304Z,92174.41
2022-08-26T02:27:57.023Z,92170.13
2022-08-26T02:30:32.837Z,92167.91
2022-08-26T02:33:08.050Z,92155.88
2022-08-26T02:35:46.270Z,92153.59
2022-08-26T02:38:24.913Z,92154.63
2022-08-26T02:40:57.544Z,92152.03
2022-08-26T02:43:32.869Z,92135.91
2022-08-26T02:46:09.614Z,92143.47
2022-08-26T02:48:41.409Z,92154.28
2022-08-26T02:51:18.517Z,92150.22
2022-08-26T02:53:55.345Z,92158.22
2022-08-26T02:56:27.338Z,92159.06
2022-08-26T02:59:01.044Z,92160.06
2022-08-26T03:01:36.817Z,92164.97
2022-08-26T03:04:13.302Z,92167.84
2022-08-26T03:06:52.882Z,92156.41
2022-08-26T03:09:24.561Z,92147.81
2022-08-26T03:11:58.445Z,92159.47
2022-08-26T03:14:31.660Z,92177.69
2022-08-26T03:17:14.755Z,92168.69
2022-08-26T03:19:54.675Z,92176.06
2022-08-26T03:22:31.152Z,92172.00
2022-08-26T03:25:03.290Z,92183.44
2022-08-26T03:27:40.538Z,92173.41
2022-08-26T03:30:39.099Z,92169.72
2022-08-26T03:33:23.126Z,92184.41
2022-08-26T03:35:55.941Z,92171.88
2022-08-26T03:38:28.732Z,92172.41
2022-08-26T03:41:05.759Z,92172.13
2022-08-26T03:43:38.159Z,92180.25
2022-08-26T03:46:16.513Z,92194.13
2022-08-26T03:48:48.675Z,92186.00
2022-08-26T03:53:31.783Z,92179.44
2022-08-26T03:56:03.520Z,92179.81
2022-08-26T03:58:45.881Z,92186.44
2022-08-26T04:01:28.671Z,92190.50
2022-08-26T04:04:02.159Z,92194.41
2022-08-26T04:06:38.526Z,92183.69
2022-08-26T04:09:15.292Z,92179.66
2022-08-26T04:11:50.334Z,92174.75
2022-08-26T04:14:29.945Z,92181.28
2022-08-26T04:17:07.065Z,92166.78
2022-08-26T04:19:41.192Z,92174.13
2022-08-26T04:22:15.554Z,92166.28
2022-08-26T04:24:57.567Z,92156.69
2022-08-26T04:27:34.838Z,92151.78
2022-08-26T04:30:08.237Z,92161.19
2022-08-26T04:32:40.766Z,92158.09
2022-08-26T04:35:20.934Z,92162.38
2022-08-26T04:38:03.915Z,92163.84
2022-08-26T04:40:39.055Z,92159.56
2022-08-26T04:43:20.918Z,92162.00
2022-08-26T04:45:54.432Z,92165.00
2022-08-26T04:48:32.366Z,92166.59
2022-08-26T04:51:04.885Z,92164.91
2022-08-26T04:53:37.611Z,92181.41
2022-08-26T04:56:10.795Z,92183.06
2022-08-26T04:58:43.101Z,92195.72
2022-08-26T05:01:19.370Z,92198.75
2022-08-26T05:03:52.756Z,92203.41
2022-08-26T05:06:24.594Z,92209.97
2022-08-26T05:09:01.160Z,92205.84
2022-08-26T05:11:36.040Z,92214.00
2022-08-26T05:14:12.678Z,92217.41
2022-08-26T05:16:49.733Z,92209.22
2022-08-26T05:19:27.894Z,92217.00
2022-08-26T05:21:59.932Z,92216.81
2022-08-26T05:24:36.603Z,92220.06
2022-08-26T05:27:12.066Z,92220.28
2022-08-26T05:29:54.479Z,92219.41
2022-08-26T05:32:29.212Z,92223.44
2022-08-26T05:35:08.903Z,92233.78
2022-08-26T05:37:41.740Z,92237.34
2022-08-26T05:40:15.810Z,92232.53
2022-08-26T05:42:49.559Z,92234.22
2022-08-26T05:45:28.549Z,92239.22
2022-08-26T05:48:00.659Z,92239.69
2022-08-26T05:50:32.501Z,92243.34
2022-08-26T05:53:04.726Z,92235.03
2022-08-26T05:55:37.726Z,92238.94
2022-08-26T05:58:12.741Z,92244.41
2022-08-26T06:00:45.418Z,92239.34
2022-08-26T06:03:17.827Z,92241.03
2022-08-26T06:05:49.672Z,92243.28
2022-08-26T06:08:26.693Z,92252.50
2022-08-26T06:11:05.954Z,92260.09
2022-08-26T06:13:40.377Z,92260.75
2022-08-26T06:16:15.819Z,92262.19
2022-08-26T06:18:50.937Z,92262.44
2022-08-26T06:21:26.857Z,92265.53
2022-08-26T06:24:29.044Z,92276.22
2022-08-26T06:27:15.965Z,92274.00
2022-08-26T06:29:48.887Z,92277.88
2022-08-26T06:32:20.765Z,92276.09
2022-08-26T06:35:00.466Z,92278.56
2022-08-26T06:37:38.598Z,92280.28
2022-08-26T06:40:11.741Z,92288.81
2022-08-26T06:42:44.154Z,92290.66
2022-08-26T06:45:17.408Z,92300.25
2022-08-26T06:47:53.995Z,92295.16
2022-08-26T06:53:31.554Z,92303.09
2022-08-26T06:56:06.830Z,92300.25
2022-08-26T06:58:41.167Z,92302.16
2022-08-26T07:01:31.156Z,92296.44
2022-08-26T07:04:10.501Z,92304.41
2022-08-26T07:06:53.001Z,92308.31
2022-08-26T07:09:34.959Z,92309.59
2022-08-26T07:12:11.917Z,92316.78
2022-08-26T07:14:47.541Z,92313.50
2022-08-26T07:17:25.888Z,92320.66
2022-08-26T07:19:58.057Z,92326.53
2022-08-26T07:22:33.561Z,92326.75
2022-08-26T07:25:08.028Z,92322.97
2022-08-26T07:27:41.417Z,92325.16
2022-08-26T07:30:15.411Z,92316.97
2022-08-26T07:32:47.159Z,92321.81
2022-08-26T07:35:19.091Z,92326.75
2022-08-26T07:37:55.076Z,92323.69
2022-08-26T07:40:31.728Z,92317.00
2022-08-26T07:43:08.501Z,92325.06
2022-08-26T07:45:41.079Z,92320.66
2022-08-26T07:48:13.806Z,92316.66
2022-08-26T07:50:51.448Z,92324.06
2022-08-26T07:53:25.032Z,92322.91
2022-08-26T07:55:59.501Z,92316.22
2022-08-26T07:58:31.629Z,92312.19
2022-08-26T08:01:09.142Z,92310.00
2022-08-26T08:03:42.071Z,92303.66
2022-08-26T08:06:19.940Z,92298.16
2022-08-26T08:08:52.723Z,92303.72
2022-08-26T08:11:27.516Z,92299.00
2022-08-26T08:14:01.932Z,92312.13
2022-08-26T08:16:34.233Z,92307.84
2022-08-26T08:19:07.169Z,92310.94
2022-08-26T08:21:39.212Z,92310.34
2022-08-26T08:24:12.348Z,92301.97
2022-08-26T08:26:46.540Z,92306.47
2022-08-26T08:29:19.546Z,92306.25
2022-08-26T08:31:56.620Z,92309.13
2022-08-26T08:34:31.991Z,92306.03
2022-08-26T08:37:07.357Z,92319.72
2022-08-26T08:39:43.652Z,92318.53
2022-08-26T08:42:40.926Z,92326.50
2022-08-26T08:45:22.155Z,92335.91
2022-08-26T08:48:02.834Z,92337.16
2022-08-26T08:50:44.026Z,92333.06
2022-08-26T08:53:19.412Z,92335.28
2022-08-26T08:56:16.421Z,92328.13
2022-08-26T08:59:04.925Z,92329.91
2022-08-26T09:02:13.063Z,92332.34
2022-08-26T09:05:15.388Z,92329.31
2022-08-26T09:07:59.250Z,92341.00
2022-08-26T09:10:38.820Z,92342.47
2022-08-26T09:13:24.920Z,92338.16
2022-08-26T09:16:10.021Z,92333.28
2022-08-26T09:19:19.352Z,92332.47
2022-08-26T09:21:59.955Z,92338.16
2022-08-26T09:24:35.608Z,92335.72
2022-08-26T09:27:11.319Z,92341.44
2022-08-26T09:29:50.413Z,92342.03
2022-08-26T09:32:28.672Z,92341.00
2022-08-26T09:35:09.266Z,92346.84
2022-08-26T09:40:35.020Z,92351.34
2022-08-26T09:43:22.748Z,92333.91
2022-08-26T09:46:14.559Z,92334.66
2022-08-26T09:48:48.456Z,92333.84
2022-08-26T09:53:36.906Z,92332.44
2022-08-26T09:56:27.566Z,92331.06
2022-08-26T09:59:01.238Z,92328.44
2022-08-26T10:01:44.108Z,92339.31
2022-08-26T10:04:28.476Z,92328.50
2022-08-26T10:07:08.500Z,92335.31
2022-08-26T10:09:48.420Z,92332.25
2022-08-26T10:12:26.001Z,92334.91
2022-08-26T10:15:03.401Z,92338.00
2022-08-26T10:17:51.506Z,92339.44
2022-08-26T10:20:31.117Z,92341.28
2022-08-26T10:23:18.567Z,92339.03
2022-08-26T10:25:59.830Z,92338.81
2022-08-26T10:28:50.005Z,92335.53
2022-08-26T10:31:44.591Z,92332.06
2022-08-26T10:34:21.243Z,92333.66
2022-08-26T10:37:20.736Z,92330.59
2022-08-26T10:40:01.489Z,92325.66
2022-08-26T10:42:40.765Z,92315.88
2022-08-26T10:45:22.415Z,92309.94
2022-08-26T10:48:03.632Z,92313.25
2022-08-26T10:50:43.374Z,92314.50
2022-08-26T10:53:26.485Z,92311.91
2022-08-26T10:56:18.651Z,92317.06
2022-08-26T10:59:10.390Z,92315.84
2022-08-26T11:01:59.531Z,92315.03
2022-08-26T11:04:53.319Z,92308.72
2022-08-26T11:07:45.284Z,92311.38
2022-08-26T11:11:05.489Z,92318.75
2022-08-26T11:14:07.543Z,92314.50
2022-08-26T11:16:43.399Z,92324.31
2022-08-26T11:20:08.917Z,92312.25
2022-08-26T11:22:47.668Z,92306.13
2022-08-26T11:25:23.566Z,92313.50
2022-08-26T11:28:01.510Z,92305.69
2022-08-26T11:30:48.040Z,92303.47
2022-08-26T11:34:02.612Z,92307.38
2022-08-26T12:09:28.154Z,92290.47
2022-08-26T12:12:15.144Z,92288.63
2022-08-26T12:14:47.599Z,92283.28
2022-08-26T12:17:29.910Z,92283.44
2022-08-26T12:20:00.349Z,92276.44
2022-08-26T12:22:37.250Z,92274.88
2022-08-26T12:25:12.696Z,92269.66
2022-08-26T12:27:46.206Z,92260.97
2022-08-26T12:30:26.153Z,92264.31
2022-08-26T12:33:22.168Z,92259.25
2022-08-26T12:35:56.678Z,92257.50
2022-08-26T12:38:28.221Z,92260.31
2022-08-26T12:41:00.210Z,92262.50
2022-08-26T12:43:41.726Z,92267.50
2022-08-26T12:46:15.706Z,92257.69
2022-08-26T12:48:50.596Z,92263.69
2022-08-26T12:53:32.451Z,92269.03
2022-08-26T12:56:05.529Z,92262.91
2022-08-26T12:58:38.316Z,92273.31
2022-08-26T13:01:25.107Z,92257.88
2022-08-26T13:03:55.122Z,92268.41
2022-08-26T13:06:31.683Z,92279.59
2022-08-26T13:09:06.888Z,92265.09
2022-08-26T13:12:02.125Z,92272.34
2022-08-26T13:14:32.274Z,92269.06
2022-08-26T13:17:02.417Z,92266.06
2022-08-26T13:19:32.382Z,92264.03
2022-08-26T13:22:04.749Z,92263.88
2022-08-26T13:24:39.972Z,92268.22
2022-08-26T13:27:13.195Z,92270.53
2022-08-26T13:29:43.017Z,92264.97
2022-08-26T13:32:13.134Z,92276.47
2022-08-26T13:34:43.138Z,92277.50
2022-08-26T13:37:13.166Z,92267.66
2022-08-26T13:39:44.691Z,92264.16
2022-08-26T13:42:14.509Z,92263.97
2022-08-26T13:44:45.475Z,92265.22
2022-08-26T13:47:15.561Z,92266.25
2022-08-26T13:49:46.584Z,92262.34
2022-08-26T13:54:57.075Z,92258.44
2022-08-26T13:57:28.397Z,92254.13
2022-08-26T13:59:59.622Z,92260.31
2022-08-26T14:02:31.339Z,92262.16
2022-08-26T14:05:01.056Z,92259.06
2022-08-26T14:07:30.837Z,92259.88
2022-08-26T14:10:02.175Z,92262.13
2022-08-26T14:12:32.069Z,92261.66
2022-08-26T14:15:01.994Z,92262.53
2022-08-26T14:17:33.294Z,92263.81
2022-08-26T14:20:06.018Z,92269.13
2022-08-26T14:22:40.402Z,92266.22
2022-08-26T14:25:16.612Z,92267.00
2022-08-26T14:27:46.513Z,92267.16
2022-08-26T14:30:16.657Z,92262.38
2022-08-26T14:32:50.558Z,92260.06
2022-08-26T14:35:23.055Z,92264.34
2022-08-26T14:37:53.921Z,92264.50
2022-08-26T14:40:28.483Z,92260.81
2022-08-26T14:42:59.036Z,92264.72
2022-08-26T14:45:31.965Z,92258.53
2022-08-26T14:48:02.236Z,92253.34
2022-08-26T14:50:32.956Z,92250.22
2022-08-26T14:53:20.232Z,92253.09
2022-08-26T14:55:51.916Z,92251.41
2022-08-26T14:58:22.613Z,92253.41
2022-08-26T15:00:52.457Z,92247.03
2022-08-26T15:03:22.395Z,92250.75
2022-08-26T15:05:52.231Z,92251.41
2022-08-26T15:08:22.310Z,92256.56
2022-08-26T15:10:53.788Z,92254.75
2022-08-26T15:13:24.093Z,92266.91
2022-08-26T15:15:54.054Z,92265.53
2022-08-26T15:18:24.054Z,92262.47
2022-08-26T15:20:53.918Z,92260.88
2022-08-26T15:23:23.737Z,92261.38
2022-08-26T15:25:55.252Z,92253.63
2022-08-26T15:28:26.753Z,92259.38
2022-08-26T15:30:56.876Z,92262.28
2022-08-26T15:33:26.692Z,92260.69
2022-08-26T15:35:56.555Z,92260.91
2022-08-26T15:38:26.418Z,92269.78
2022-08-26T15:41:01.016Z,92259.94
2022-08-26T15:43:33.471Z,92250.06
2022-08-26T15:46:03.606Z,92256.22
2022-08-26T15:48:33.656Z,92257.03
2022-08-26T15:53:31.086Z,92249.13
2022-08-26T15:56:03.053Z,92254.84
2022-08-26T15:58:33.392Z,92249.53
2022-08-26T16:01:06.559Z,92252.88
2022-08-26T16:03:36.732Z,92257.97
2022-08-26T16:06:07.250Z,92256.13
2022-08-26T16:08:38.624Z,92263.31
2022-08-26T16:11:08.918Z,92267.38
2022-08-26T16:13:39.922Z,92266.75
2022-08-26T16:16:11.167Z,92268.41
2022-08-26T16:18:41.215Z,92269.41
2022-08-26T16:21:13.381Z,92262.44
2022-08-26T16:23:45.717Z,92262.63
2022-08-26T16:26:21.267Z,92265.72
2022-08-26T16:28:51.439Z,92263.63
2022-08-26T16:31:22.445Z,92264.59
2022-08-26T16:33:52.476Z,92272.34
2022-08-26T16:36:22.572Z,92266.59
2022-08-26T16:38:56.664Z,92274.34
2022-08-26T16:41:28.818Z,92273.91
2022-08-26T16:43:58.995Z,92277.13
2022-08-26T16:46:30.480Z,92277.50
2022-08-26T16:49:03.975Z,92277.06
2022-08-26T16:51:38.175Z,92277.22
2022-08-26T16:54:10.477Z,92269.63
2022-08-26T16:56:40.355Z,92278.56
2022-08-26T16:59:12.696Z,92273.03
2022-08-26T17:01:42.751Z,92277.03
2022-08-26T17:04:14.796Z,92272.09
2022-08-26T17:06:44.617Z,92288.34
2022-08-26T17:09:16.116Z,92286.03
2022-08-26T17:11:46.776Z,92283.13
2022-08-26T17:14:16.675Z,92290.63
2022-08-26T17:16:51.476Z,92292.75
2022-08-26T17:19:21.974Z,92293.97
2022-08-26T17:21:52.072Z,92294.78
2022-08-26T17:24:23.556Z,92285.00
2022-08-26T17:26:55.754Z,92293.78
2022-08-26T17:29:25.936Z,92295.50
2022-08-26T17:31:55.752Z,92295.13
2022-08-26T17:34:26.697Z,92304.03
2022-08-26T17:36:56.641Z,92309.66
2022-08-26T17:39:28.171Z,92302.88
2022-08-26T17:41:57.935Z,92312.31
2022-08-26T17:44:27.999Z,92316.44
2022-08-26T17:46:57.954Z,92315.59
2022-08-26T17:49:28.231Z,92314.72
2022-08-26T17:52:00.662Z,92319.31
2022-08-26T17:54:32.376Z,92311.91
2022-08-26T17:57:02.284Z,92318.03
2022-08-26T17:59:32.213Z,92320.88
2022-08-26T18:02:02.136Z,92325.75
2022-08-26T18:04:32.155Z,92323.13
2022-08-26T18:07:01.957Z,92324.69
2022-08-26T18:09:34.716Z,92333.47
2022-08-26T18:12:05.302Z,92338.56
2022-08-26T18:14:36.467Z,92342.59
2022-08-26T18:17:07.289Z,92349.31
2022-08-26T18:19:37.491Z,92341.91
2022-08-26T18:22:08.080Z,92347.16
2022-08-26T18:24:39.754Z,92347.44
2022-08-26T18:27:25.413Z,92342.31
2022-08-26T18:29:56.294Z,92343.59
2022-08-26T18:32:26.235Z,92346.59
2022-08-26T18:34:56.323Z,92346.59
2022-08-26T18:37:28.055Z,92350.97
2022-08-26T18:40:02.601Z,92346.41
2022-08-26T18:42:33.971Z,92343.75
2022-08-26T18:45:04.097Z,92343.00
2022-08-26T18:47:35.195Z,92350.78
2022-08-26T18:53:29.703Z,92349.75
2022-08-26T18:55:59.967Z,92361.09
2022-08-26T18:58:30.052Z,92353.69
2022-08-26T19:01:00.011Z,92352.66
2022-08-26T19:03:30.154Z,92352.94
2022-08-26T19:06:00.034Z,92356.56
2022-08-26T19:08:31.572Z,92344.06
2022-08-26T19:11:02.692Z,92353.00
2022-08-26T19:13:33.074Z,92344.78
2022-08-26T19:16:03.057Z,92344.31
2022-08-26T19:18:33.474Z,92348.13
2022-08-26T19:21:06.537Z,92341.94
2022-08-26T19:23:37.723Z,92353.88
2022-08-26T19:26:10.238Z,92346.28
2022-08-26T19:28:41.328Z,92347.63
2022-08-26T19:31:11.935Z,92349.34
2022-08-26T19:33:43.935Z,92360.53
2022-08-26T19:36:19.387Z,92356.25
2022-08-26T19:38:51.853Z,92358.72
2022-08-26T19:41:36.659Z,92358.00
2022-08-26T19:44:11.312Z,92352.00
2022-08-26T19:46:41.999Z,92351.38
2022-08-26T19:49:12.051Z,92356.91
2022-08-26T19:51:41.976Z,92359.38
2022-08-26T19:54:13.393Z,92349.78
2022-08-26T19:56:44.996Z,92360.53
2022-08-26T19:59:18.411Z,92364.75
2022-08-26T20:01:55.195Z,92360.66
2022-08-26T20:04:31.015Z,92362.78
2022-08-26T20:07:01.163Z,92362.97
2022-08-26T20:09:34.309Z,92364.78
2022-08-26T20:12:05.475Z,92366.47
2022-08-26T20:14:36.651Z,92355.75
2022-08-26T20:17:07.838Z,92355.50
2022-08-26T20:19:55.061Z,92360.78
2022-08-26T20:22:25.853Z,92348.78
2022-08-26T20:24:57.353Z,92353.59
2022-08-26T20:27:37.820Z,92347.16
2022-08-26T20:30:11.946Z,92353.59
2022-08-26T20:32:43.101Z,92355.22
2022-08-26T20:35:16.175Z,92353.94
2022-08-26T20:37:46.117Z,92356.09
2022-08-26T20:40:17.772Z,92357.44
2022-08-26T20:42:49.331Z,92355.81
2022-08-26T20:45:19.672Z,92359.16
2022-08-26T20:47:49.390Z,92360.31
2022-08-26T20:50:19.631Z,92364.44
2022-08-26T20:52:49.553Z,92369.56
2022-08-26T20:55:21.299Z,92366.31
2022-08-26T20:57:52.297Z,92363.06
2022-08-26T21:00:26.422Z,92363.56
2022-08-26T21:02:57.953Z,92363.72
2022-08-26T21:05:27.954Z,92356.47
2022-08-26T21:07:57.770Z,92369.34
2022-08-26T21:10:30.770Z,92360.13
2022-08-26T21:13:00.917Z,92366.22
2022-08-26T21:15:32.214Z,92367.84
2022-08-26T21:18:03.635Z,92370.00
2022-08-26T21:20:34.193Z,92371.31
2022-08-26T21:23:04.252Z,92366.53
2022-08-26T21:25:35.652Z,92375.78
2022-08-26T21:28:06.146Z,92369.66
2022-08-26T21:30:39.894Z,92376.59
2022-08-26T21:33:10.303Z,92376.25
2022-08-26T21:35:40.323Z,92370.66
2022-08-26T21:38:10.326Z,92363.94
2022-08-26T21:40:41.869Z,92373.47
2022-08-26T21:43:13.142Z,92365.72
2022-08-26T21:45:57.904Z,92366.88
2022-08-26T21:48:32.263Z,92359.78
2022-08-26T21:53:28.916Z,92371.47
2022-08-26T21:55:58.834Z,92370.47
2022-08-26T21:58:28.898Z,92372.75
2022-08-26T22:00:58.979Z,92373.72
2022-08-26T22:03:29.501Z,92372.59
2022-08-26T22:06:05.109Z,92375.06
2022-08-26T22:08:37.895Z,92374.22
2022-08-26T22:11:07.948Z,92370.94
2022-08-26T22:13:40.350Z,92374.88
2022-08-26T22:16:11.789Z,92368.78
2022-08-26T22:18:43.573Z,92370.25
2022-08-26T22:21:16.637Z,92365.97
2022-08-26T22:23:48.789Z,92376.34
2022-08-26T22:26:25.848Z,92375.16
2022-08-26T22:28:59.201Z,92367.91
2022-08-26T22:31:37.709Z,92367.91
2022-08-26T22:34:11.143Z,92369.91
2022-08-26T22:36:48.237Z,92361.50
2022-08-26T22:39:22.516Z,92360.81
2022-08-26T22:41:53.259Z,92360.81
2022-08-26T22:44:24.770Z,92357.84
2022-08-26T22:46:55.830Z,92361.00
2022-08-26T22:49:26.551Z,92361.50
2022-08-26T22:51:56.662Z,92360.00
2022-08-26T22:54:28.372Z,92360.50
2022-08-26T22:56:58.315Z,92359.84
2022-08-26T22:59:28.161Z,92360.56
2022-08-26T23:01:58.724Z,92358.56
2022-08-26T23:04:28.654Z,92358.75
2022-08-26T23:06:58.497Z,92358.75
2022-08-26T23:09:29.911Z,92351.66
2022-08-26T23:11:59.975Z,92352.00
2022-08-26T23:14:29.869Z,92354.63
2022-08-26T23:16:59.831Z,92347.56
2022-08-26T23:19:29.773Z,92340.28
2022-08-26T23:21:59.692Z,92346.53
2022-08-26T23:24:31.072Z,92343.59
2022-08-26T23:27:01.039Z,92347.88
2022-08-26T23:29:31.311Z,92343.59
2022-08-26T23:32:01.336Z,92348.19
2022-08-26T23:34:48.598Z,92346.88
2022-08-26T23:37:19.911Z,92337.88
2022-08-26T23:39:52.898Z,92344.78
2022-08-26T23:42:23.242Z,92344.66
2022-08-26T23:44:53.720Z,92354.69
2022-08-26T23:47:23.692Z,92358.28
2022-08-26T23:49:53.613Z,92353.38
2022-08-26T23:52:41.084Z,92353.03
2022-08-26T23:55:13.244Z,92346.44
2022-08-26T23:57:43.575Z,92358.31
